sensor_id;sensor_type;location;lat;lon;timestamp;P1;durP1;ratioP1;P2;durP2;ratioP2
28958;SDS011;16066;0.000;0.000;2024-02-28T06:02:29;26.67;;;17.47;;
28958;SDS011;16066;0.000;0.000;2024-02-28T06:04:54;29.27;;;19.00;;
28958;SDS011;16066;0.000;0.000;2024-02-28T06:07:20;21.10;;;14.70;;
28958;SDS011;16066;0.000;0.000;2024-02-28T06:09:46;23.60;;;15.40;;
28958;SDS011;16066;0.000;0.000;2024-02-28T06:12:11;21.57;;;14.70;;
28958;SDS011;16066;0.000;0.000;2024-02-28T06:14:36;21.27;;;13.83;;
28958;SDS011;16066;0.000;0.000;2024-02-28T06:17:02;21.50;;;14.30;;
28958;SDS011;16066;0.000;0.000;2024-02-28T06:19:28;22.83;;;14.13;;
28958;SDS011;16066;0.000;0.000;2024-02-28T06:21:53;19.87;;;13.80;;
28958;SDS011;16066;0.000;0.000;2024-02-28T06:24:19;18.27;;;11.80;;
28958;SDS011;16066;0.000;0.000;2024-02-28T06:26:45;17.83;;;13.30;;
28958;SDS011;16066;0.000;0.000;2024-02-28T06:29:11;18.77;;;13.27;;
28958;SDS011;16066;0.000;0.000;2024-02-28T06:31:36;18.43;;;13.17;;
28958;SDS011;16066;0.000;0.000;2024-02-28T06:34:02;25.03;;;15.97;;
28958;SDS011;16066;0.000;0.000;2024-02-28T06:36:28;19.83;;;14.70;;
28958;SDS011;16066;0.000;0.000;2024-02-28T06:38:54;18.10;;;13.17;;
28958;SDS011;16066;0.000;0.000;2024-02-28T06:41:20;21.33;;;13.77;;
28958;SDS011;16066;0.000;0.000;2024-02-28T06:43:46;21.30;;;15.10;;
28958;SDS011;16066;0.000;0.000;2024-02-28T06:46:11;16.53;;;12.07;;
28958;SDS011;16066;0.000;0.000;2024-02-28T06:48:37;17.73;;;12.30;;
28958;SDS011;16066;0.000;0.000;2024-02-28T06:51:02;15.67;;;11.20;;
28958;SDS011;16066;0.000;0.000;2024-02-28T06:53:28;22.47;;;14.53;;
28958;SDS011;16066;0.000;0.000;2024-02-28T06:55:53;21.23;;;13.60;;
28958;SDS011;16066;0.000;0.000;2024-02-28T06:58:19;14.47;;;11.20;;
28958;SDS011;16066;0.000;0.000;2024-02-28T07:00:44;14.47;;;11.10;;
28958;SDS011;16066;0.000;0.000;2024-02-28T07:03:11;18.60;;;13.00;;
28958;SDS011;16066;0.000;0.000;2024-02-28T07:05:36;18.90;;;13.50;;
28958;SDS011;16066;0.000;0.000;2024-02-28T07:08:02;22.00;;;14.73;;
28958;SDS011;16066;0.000;0.000;2024-02-28T07:10:28;29.77;;;18.60;;
28958;SDS011;16066;0.000;0.000;2024-02-28T07:12:53;35.27;;;19.70;;
28958;SDS011;16066;0.000;0.000;2024-02-28T07:15:19;29.10;;;19.47;;
28958;SDS011;16066;0.000;0.000;2024-02-28T07:17:46;31.23;;;21.40;;
28958;SDS011;16066;0.000;0.000;2024-02-28T07:20:12;33.83;;;19.97;;
28958;SDS011;16066;0.000;0.000;2024-02-28T07:22:38;28.80;;;19.20;;
28958;SDS011;16066;0.000;0.000;2024-02-28T07:25:04;37.87;;;22.67;;
28958;SDS011;16066;0.000;0.000;2024-02-28T07:27:30;30.60;;;20.37;;
28958;SDS011;16066;0.000;0.000;2024-02-28T07:29:55;34.10;;;22.43;;
28958;SDS011;16066;0.000;0.000;2024-02-28T07:32:21;33.40;;;22.60;;
28958;SDS011;16066;0.000;0.000;2024-02-28T07:34:47;38.73;;;21.20;;
28958;SDS011;16066;0.000;0.000;2024-02-28T07:37:13;32.20;;;21.27;;
28958;SDS011;16066;0.000;0.000;2024-02-28T07:39:39;34.90;;;22.73;;
28958;SDS011;16066;0.000;0.000;2024-02-28T07:42:04;50.07;;;21.87;;
28958;SDS011;16066;0.000;0.000;2024-02-28T07:44:30;31.87;;;18.40;;
28958;SDS011;16066;0.000;0.000;2024-02-28T07:46:56;28.33;;;18.77;;
28958;SDS011;16066;0.000;0.000;2024-02-28T07:49:23;31.87;;;20.43;;
28958;SDS011;16066;0.000;0.000;2024-02-28T07:51:49;29.40;;;18.63;;
28958;SDS011;16066;0.000;0.000;2024-02-28T07:54:14;30.10;;;18.70;;
28958;SDS011;16066;0.000;0.000;2024-02-28T07:56:40;27.87;;;16.70;;
28958;SDS011;16066;0.000;0.000;2024-02-28T07:59:05;21.93;;;14.63;;
28958;SDS011;16066;0.000;0.000;2024-02-28T08:01:31;22.67;;;14.63;;
28958;SDS011;16066;0.000;0.000;2024-02-28T08:03:57;20.63;;;13.77;;
28958;SDS011;16066;0.000;0.000;2024-02-28T08:06:22;23.23;;;14.53;;
28958;SDS011;16066;0.000;0.000;2024-02-28T08:08:49;25.00;;;15.33;;
28958;SDS011;16066;0.000;0.000;2024-02-28T08:11:14;29.60;;;13.23;;
28958;SDS011;16066;0.000;0.000;2024-02-28T08:13:40;22.57;;;13.77;;
28958;SDS011;16066;0.000;0.000;2024-02-28T08:16:05;29.63;;;13.80;;
28958;SDS011;16066;0.000;0.000;2024-02-28T08:18:33;26.40;;;14.13;;
28958;SDS011;16066;0.000;0.000;2024-02-28T08:21:00;23.83;;;14.10;;
28958;SDS011;16066;0.000;0.000;2024-02-28T08:23:27;20.10;;;14.07;;
28958;SDS011;16066;0.000;0.000;2024-02-28T08:25:52;22.97;;;13.70;;
28958;SDS011;16066;0.000;0.000;2024-02-28T08:28:18;22.10;;;14.13;;
28958;SDS011;16066;0.000;0.000;2024-02-28T08:30:44;17.07;;;11.77;;
28958;SDS011;16066;0.000;0.000;2024-02-28T08:33:09;16.70;;;11.50;;
28958;SDS011;16066;0.000;0.000;2024-02-28T08:35:35;17.47;;;11.87;;
28958;SDS011;16066;0.000;0.000;2024-02-28T08:38:01;15.97;;;12.00;;
28958;SDS011;16066;0.000;0.000;2024-02-28T08:40:28;17.73;;;12.00;;
28958;SDS011;16066;0.000;0.000;2024-02-28T08:42:53;23.30;;;13.03;;
28958;SDS011;16066;0.000;0.000;2024-02-28T08:45:19;16.97;;;11.60;;
28958;SDS011;16066;0.000;0.000;2024-02-28T08:47:45;16.07;;;11.07;;
28958;SDS011;16066;0.000;0.000;2024-02-28T08:50:11;17.90;;;11.50;;
28958;SDS011;16066;0.000;0.000;2024-02-28T08:52:36;16.50;;;10.70;;
28958;SDS011;16066;0.000;0.000;2024-02-28T08:55:02;16.33;;;11.00;;
28958;SDS011;16066;0.000;0.000;2024-02-28T08:57:27;15.80;;;11.10;;
28958;SDS011;16066;0.000;0.000;2024-02-28T08:59:55;16.23;;;11.40;;
28958;SDS011;16066;0.000;0.000;2024-02-28T09:02:20;17.13;;;11.20;;
28958;SDS011;16066;0.000;0.000;2024-02-28T09:04:46;20.87;;;14.50;;
28958;SDS011;16066;0.000;0.000;2024-02-28T09:07:16;17.63;;;12.03;;
28958;SDS011;16066;0.000;0.000;2024-02-28T09:09:45;15.93;;;10.93;;
28958;SDS011;16066;0.000;0.000;2024-02-28T09:12:11;16.13;;;10.43;;
28958;SDS011;16066;0.000;0.000;2024-02-28T09:14:37;13.30;;;10.20;;
28958;SDS011;16066;0.000;0.000;2024-02-28T09:17:03;17.60;;;11.63;;
28958;SDS011;16066;0.000;0.000;2024-02-28T09:19:29;17.03;;;10.67;;
28958;SDS011;16066;0.000;0.000;2024-02-28T09:21:55;16.60;;;11.43;;
28958;SDS011;16066;0.000;0.000;2024-02-28T09:24:22;17.93;;;10.73;;
28958;SDS011;16066;0.000;0.000;2024-02-28T09:26:47;16.43;;;11.97;;
28958;SDS011;16066;0.000;0.000;2024-02-28T09:29:13;18.53;;;11.60;;
28958;SDS011;16066;0.000;0.000;2024-02-28T09:31:38;15.93;;;10.33;;
28958;SDS011;16066;0.000;0.000;2024-02-28T10:14:27;18.87;;;11.20;;
28958;SDS011;16066;0.000;0.000;2024-02-28T10:16:53;22.43;;;12.20;;
28958;SDS011;16066;0.000;0.000;2024-02-28T10:19:20;16.47;;;11.40;;
28958;SDS011;16066;0.000;0.000;2024-02-28T10:21:46;16.60;;;11.77;;
28958;SDS011;16066;0.000;0.000;2024-02-28T10:24:11;16.80;;;11.43;;
28958;SDS011;16066;0.000;0.000;2024-02-28T10:26:45;22.70;;;12.10;;
28958;SDS011;16066;0.000;0.000;2024-02-28T10:29:20;17.67;;;12.80;;
28958;SDS011;16066;0.000;0.000;2024-02-28T10:31:46;17.03;;;12.43;;
28958;SDS011;16066;0.000;0.000;2024-02-28T10:34:12;17.33;;;11.13;;
28958;SDS011;16066;0.000;0.000;2024-02-28T10:36:41;17.67;;;10.93;;
28958;SDS011;16066;0.000;0.000;2024-02-28T10:39:08;19.30;;;11.50;;
28958;SDS011;16066;0.000;0.000;2024-02-28T10:41:35;18.23;;;12.00;;
28958;SDS011;16066;0.000;0.000;2024-02-28T10:44:03;20.43;;;11.67;;
28958;SDS011;16066;0.000;0.000;2024-02-28T10:46:29;16.43;;;11.53;;
28958;SDS011;16066;0.000;0.000;2024-02-28T10:48:55;15.13;;;10.53;;
28958;SDS011;16066;0.000;0.000;2024-02-28T10:51:25;15.33;;;10.70;;
28958;SDS011;16066;0.000;0.000;2024-02-28T10:54:12;16.73;;;10.50;;
28958;SDS011;16066;0.000;0.000;2024-02-28T10:56:38;16.27;;;10.40;;
28958;SDS011;16066;0.000;0.000;2024-02-28T10:59:06;34.00;;;22.77;;
28958;SDS011;16066;0.000;0.000;2024-02-28T11:01:33;29.97;;;20.90;;
28958;SDS011;16066;0.000;0.000;2024-02-28T11:04:03;27.57;;;19.13;;
28958;SDS011;16066;0.000;0.000;2024-02-28T11:06:29;30.10;;;19.40;;
28958;SDS011;16066;0.000;0.000;2024-02-28T11:08:55;29.73;;;18.17;;
28958;SDS011;16066;0.000;0.000;2024-02-28T11:11:23;27.93;;;18.40;;
28958;SDS011;16066;0.000;0.000;2024-02-28T11:13:52;31.20;;;18.93;;
28958;SDS011;16066;0.000;0.000;2024-02-28T11:16:25;24.67;;;16.03;;
28958;SDS011;16066;0.000;0.000;2024-02-28T11:18:52;25.70;;;17.30;;
28958;SDS011;16066;0.000;0.000;2024-02-28T11:21:18;25.47;;;17.00;;
28958;SDS011;16066;0.000;0.000;2024-02-28T11:23:47;23.37;;;15.93;;
28958;SDS011;16066;0.000;0.000;2024-02-28T11:26:16;27.63;;;16.03;;
28958;SDS011;16066;0.000;0.000;2024-02-28T11:28:41;21.50;;;15.10;;
28958;SDS011;16066;0.000;0.000;2024-02-28T11:31:07;22.13;;;15.50;;
28958;SDS011;16066;0.000;0.000;2024-02-28T11:33:33;22.73;;;15.70;;
28958;SDS011;16066;0.000;0.000;2024-02-28T11:35:59;21.77;;;14.87;;
28958;SDS011;16066;0.000;0.000;2024-02-28T11:38:27;21.77;;;14.53;;
28958;SDS011;16066;0.000;0.000;2024-02-28T11:40:54;21.67;;;15.30;;
28958;SDS011;16066;0.000;0.000;2024-02-28T11:43:23;20.53;;;14.67;;
28958;SDS011;16066;0.000;0.000;2024-02-28T11:45:48;17.37;;;12.73;;
28958;SDS011;16066;0.000;0.000;2024-02-28T11:48:14;19.27;;;13.90;;
28958;SDS011;16066;0.000;0.000;2024-02-28T11:50:41;18.53;;;14.13;;
28958;SDS011;16066;0.000;0.000;2024-02-28T11:53:07;22.73;;;15.07;;
28958;SDS011;16066;0.000;0.000;2024-02-28T11:55:32;21.40;;;15.70;;
28958;SDS011;16066;0.000;0.000;2024-02-28T11:57:58;25.20;;;15.80;;
28958;SDS011;16066;0.000;0.000;2024-02-28T12:00:23;19.40;;;14.40;;
28958;SDS011;16066;0.000;0.000;2024-02-28T12:02:49;20.50;;;14.13;;
28958;SDS011;16066;0.000;0.000;2024-02-28T12:05:14;19.50;;;13.77;;
28958;SDS011;16066;0.000;0.000;2024-02-28T12:07:41;16.47;;;12.80;;
28958;SDS011;16066;0.000;0.000;2024-02-28T12:10:06;18.40;;;13.03;;
28958;SDS011;16066;0.000;0.000;2024-02-28T12:12:34;17.80;;;13.33;;
28958;SDS011;16066;0.000;0.000;2024-02-28T12:15:00;20.47;;;13.50;;
28958;SDS011;16066;0.000;0.000;2024-02-28T12:17:26;18.47;;;13.17;;
28958;SDS011;16066;0.000;0.000;2024-02-28T12:19:52;19.90;;;13.37;;
28958;SDS011;16066;0.000;0.000;2024-02-28T12:22:18;16.57;;;12.77;;
28958;SDS011;16066;0.000;0.000;2024-02-28T12:24:43;17.40;;;12.97;;
28958;SDS011;16066;0.000;0.000;2024-02-28T12:27:09;16.60;;;12.50;;
28958;SDS011;16066;0.000;0.000;2024-02-28T12:29:34;16.30;;;12.67;;
28958;SDS011;16066;0.000;0.000;2024-02-28T12:32:00;18.00;;;11.83;;
28958;SDS011;16066;0.000;0.000;2024-02-28T12:34:25;16.80;;;13.00;;
28958;SDS011;16066;0.000;0.000;2024-02-28T12:36:51;16.07;;;12.27;;
28958;SDS011;16066;0.000;0.000;2024-02-28T12:39:17;21.30;;;12.83;;
28958;SDS011;16066;0.000;0.000;2024-02-28T12:41:42;18.03;;;12.20;;
28958;SDS011;16066;0.000;0.000;2024-02-28T12:44:08;18.87;;;12.50;;
28958;SDS011;16066;0.000;0.000;2024-02-28T12:46:35;13.80;;;11.10;;
28958;SDS011;16066;0.000;0.000;2024-02-28T12:49:01;15.23;;;12.07;;
28958;SDS011;16066;0.000;0.000;2024-02-28T12:51:36;16.90;;;11.37;;
28958;SDS011;16066;0.000;0.000;2024-02-28T12:54:02;16.90;;;12.00;;
28958;SDS011;16066;0.000;0.000;2024-02-28T12:56:28;16.27;;;11.53;;
28958;SDS011;16066;0.000;0.000;2024-02-28T12:58:54;14.43;;;11.13;;
28958;SDS011;16066;0.000;0.000;2024-02-28T13:01:19;17.60;;;12.37;;
28958;SDS011;16066;0.000;0.000;2024-02-28T13:03:45;16.47;;;12.40;;
28958;SDS011;16066;0.000;0.000;2024-02-28T13:06:10;14.50;;;11.10;;
28958;SDS011;16066;0.000;0.000;2024-02-28T13:08:36;14.97;;;11.10;;
28958;SDS011;16066;0.000;0.000;2024-02-28T13:11:01;15.07;;;11.50;;
28958;SDS011;16066;0.000;0.000;2024-02-28T13:13:28;15.23;;;11.87;;
28958;SDS011;16066;0.000;0.000;2024-02-28T13:15:53;15.90;;;11.07;;
28958;SDS011;16066;0.000;0.000;2024-02-28T13:18:19;16.23;;;11.87;;
28958;SDS011;16066;0.000;0.000;2024-02-28T13:20:45;16.37;;;12.00;;
28958;SDS011;16066;0.000;0.000;2024-02-28T13:23:10;14.27;;;10.20;;
28958;SDS011;16066;0.000;0.000;2024-02-28T13:25:36;15.87;;;11.50;;
28958;SDS011;16066;0.000;0.000;2024-02-28T13:28:02;17.37;;;12.70;;
28958;SDS011;16066;0.000;0.000;2024-02-28T13:30:27;14.43;;;10.63;;
28958;SDS011;16066;0.000;0.000;2024-02-28T13:32:53;13.77;;;11.10;;
28958;SDS011;16066;0.000;0.000;2024-02-28T13:35:18;16.00;;;11.80;;
28958;SDS011;16066;0.000;0.000;2024-02-28T13:37:44;15.70;;;11.63;;
28958;SDS011;16066;0.000;0.000;2024-02-28T13:40:09;14.53;;;11.03;;
28958;SDS011;16066;0.000;0.000;2024-02-28T13:42:35;15.27;;;11.20;;
28958;SDS011;16066;0.000;0.000;2024-02-28T13:45:03;16.57;;;11.67;;
28958;SDS011;16066;0.000;0.000;2024-02-28T13:47:32;16.63;;;12.70;;
28958;SDS011;16066;0.000;0.000;2024-02-28T13:49:58;15.57;;;11.70;;
28958;SDS011;16066;0.000;0.000;2024-02-28T13:52:24;15.20;;;11.40;;
28958;SDS011;16066;0.000;0.000;2024-02-28T13:54:49;17.93;;;11.83;;
28958;SDS011;16066;0.000;0.000;2024-02-28T13:57:17;16.47;;;12.53;;
28958;SDS011;16066;0.000;0.000;2024-02-28T13:59:42;16.13;;;12.03;;
28958;SDS011;16066;0.000;0.000;2024-02-28T14:02:08;17.40;;;11.53;;
28958;SDS011;16066;0.000;0.000;2024-02-28T14:04:35;16.53;;;12.33;;
28958;SDS011;16066;0.000;0.000;2024-02-28T14:07:02;14.63;;;11.00;;
28958;SDS011;16066;0.000;0.000;2024-02-28T14:09:28;15.63;;;12.17;;
28958;SDS011;16066;0.000;0.000;2024-02-28T14:11:53;16.20;;;12.13;;
28958;SDS011;16066;0.000;0.000;2024-02-28T14:14:19;16.23;;;11.43;;
28958;SDS011;16066;0.000;0.000;2024-02-28T14:16:44;14.83;;;10.87;;
28958;SDS011;16066;0.000;0.000;2024-02-28T14:19:10;15.70;;;11.07;;
28958;SDS011;16066;0.000;0.000;2024-02-28T14:21:36;14.70;;;10.83;;
28958;SDS011;16066;0.000;0.000;2024-02-28T14:24:01;14.07;;;11.30;;
28958;SDS011;16066;0.000;0.000;2024-02-28T14:26:27;16.50;;;12.00;;
28958;SDS011;16066;0.000;0.000;2024-02-28T14:28:52;16.00;;;11.67;;
28958;SDS011;16066;0.000;0.000;2024-02-28T14:31:20;13.43;;;10.90;;
28958;SDS011;16066;0.000;0.000;2024-02-28T14:33:45;14.47;;;10.67;;
28958;SDS011;16066;0.000;0.000;2024-02-28T14:36:11;14.33;;;11.20;;
28958;SDS011;16066;0.000;0.000;2024-02-28T14:38:37;13.27;;;10.60;;
28958;SDS011;16066;0.000;0.000;2024-02-28T14:41:02;14.70;;;10.83;;
28958;SDS011;16066;0.000;0.000;2024-02-28T14:43:28;18.27;;;11.73;;
28958;SDS011;16066;0.000;0.000;2024-02-28T14:45:55;15.73;;;11.77;;
28958;SDS011;16066;0.000;0.000;2024-02-28T14:48:20;16.30;;;13.20;;
28958;SDS011;16066;0.000;0.000;2024-02-28T14:50:47;16.10;;;12.40;;
28958;SDS011;16066;0.000;0.000;2024-02-28T14:53:13;18.53;;;10.70;;
28958;SDS011;16066;0.000;0.000;2024-02-28T14:55:41;17.13;;;13.30;;
28958;SDS011;16066;0.000;0.000;2024-02-28T14:58:09;19.17;;;13.87;;
28958;SDS011;16066;0.000;0.000;2024-02-28T15:00:35;19.10;;;13.97;;
28958;SDS011;16066;0.000;0.000;2024-02-28T15:03:01;25.93;;;14.53;;
28958;SDS011;16066;0.000;0.000;2024-02-28T15:05:26;19.57;;;14.87;;
28958;SDS011;16066;0.000;0.000;2024-02-28T15:07:52;52.20;;;15.83;;
28958;SDS011;16066;0.000;0.000;2024-02-28T15:10:19;21.40;;;14.17;;
28958;SDS011;16066;0.000;0.000;2024-02-28T15:12:45;18.20;;;14.63;;
28958;SDS011;16066;0.000;0.000;2024-02-28T15:15:10;19.07;;;14.50;;
28958;SDS011;16066;0.000;0.000;2024-02-28T15:17:36;17.40;;;12.70;;
28958;SDS011;16066;0.000;0.000;2024-02-28T15:20:02;16.10;;;12.13;;
28958;SDS011;16066;0.000;0.000;2024-02-28T15:22:28;15.10;;;12.73;;
28958;SDS011;16066;0.000;0.000;2024-02-28T15:24:54;16.53;;;12.40;;
28958;SDS011;16066;0.000;0.000;2024-02-28T15:27:20;17.43;;;12.33;;
28958;SDS011;16066;0.000;0.000;2024-02-28T15:29:46;16.17;;;11.77;;
28958;SDS011;16066;0.000;0.000;2024-02-28T15:32:11;16.60;;;12.97;;
28958;SDS011;16066;0.000;0.000;2024-02-28T15:34:37;22.57;;;15.47;;
28958;SDS011;16066;0.000;0.000;2024-02-28T15:37:03;17.47;;;13.73;;
28958;SDS011;16066;0.000;0.000;2024-02-28T15:39:29;20.40;;;14.53;;
28958;SDS011;16066;0.000;0.000;2024-02-28T15:41:54;16.20;;;12.13;;
28958;SDS011;16066;0.000;0.000;2024-02-28T15:44:20;16.63;;;12.40;;
28958;SDS011;16066;0.000;0.000;2024-02-28T15:46:46;16.00;;;12.40;;
28958;SDS011;16066;0.000;0.000;2024-02-28T15:49:12;18.37;;;12.77;;
28958;SDS011;16066;0.000;0.000;2024-02-28T15:51:37;16.27;;;12.30;;
28958;SDS011;16066;0.000;0.000;2024-02-28T15:54:03;14.40;;;11.10;;
28958;SDS011;16066;0.000;0.000;2024-02-28T15:56:28;16.77;;;13.13;;
28958;SDS011;16066;0.000;0.000;2024-02-28T15:58:54;20.10;;;15.27;;
28958;SDS011;16066;0.000;0.000;2024-02-28T16:01:20;43.83;;;33.33;;
28958;SDS011;16066;0.000;0.000;2024-02-28T16:03:46;43.80;;;33.73;;
28958;SDS011;16066;0.000;0.000;2024-02-28T16:06:11;40.70;;;28.57;;
28958;SDS011;16066;0.000;0.000;2024-02-28T16:08:40;37.73;;;25.23;;
28958;SDS011;16066;0.000;0.000;2024-02-28T16:11:09;34.53;;;24.40;;
28958;SDS011;16066;0.000;0.000;2024-02-28T16:13:36;37.37;;;23.63;;
28958;SDS011;16066;0.000;0.000;2024-02-28T16:16:02;37.40;;;24.33;;
28958;SDS011;16066;0.000;0.000;2024-02-28T16:18:28;38.93;;;27.17;;
28958;SDS011;16066;0.000;0.000;2024-02-28T16:20:54;30.63;;;21.37;;
28958;SDS011;16066;0.000;0.000;2024-02-28T16:23:22;34.23;;;22.83;;
28958;SDS011;16066;0.000;0.000;2024-02-28T16:25:48;35.70;;;22.87;;
28958;SDS011;16066;0.000;0.000;2024-02-28T16:28:13;35.10;;;23.10;;
28958;SDS011;16066;0.000;0.000;2024-02-28T16:30:39;34.53;;;23.57;;
28958;SDS011;16066;0.000;0.000;2024-02-28T16:33:11;46.70;;;24.57;;
28958;SDS011;16066;0.000;0.000;2024-02-28T16:35:36;30.03;;;21.20;;
28958;SDS011;16066;0.000;0.000;2024-02-28T16:38:02;33.33;;;24.67;;
28958;SDS011;16066;0.000;0.000;2024-02-28T16:40:28;29.07;;;20.43;;
28958;SDS011;16066;0.000;0.000;2024-02-28T16:42:54;26.30;;;19.20;;
28958;SDS011;16066;0.000;0.000;2024-02-28T16:45:20;26.53;;;19.70;;
28958;SDS011;16066;0.000;0.000;2024-02-28T16:47:46;28.70;;;20.20;;
28958;SDS011;16066;0.000;0.000;2024-02-28T16:50:12;30.80;;;19.23;;
28958;SDS011;16066;0.000;0.000;2024-02-28T16:52:37;27.90;;;20.83;;
28958;SDS011;16066;0.000;0.000;2024-02-28T16:55:03;24.70;;;18.10;;
28958;SDS011;16066;0.000;0.000;2024-02-28T16:57:30;28.93;;;20.20;;
28958;SDS011;16066;0.000;0.000;2024-02-28T16:59:55;26.93;;;18.70;;
28958;SDS011;16066;0.000;0.000;2024-02-28T17:02:21;29.93;;;17.90;;
28958;SDS011;16066;0.000;0.000;2024-02-28T17:04:46;25.63;;;19.33;;
28958;SDS011;16066;0.000;0.000;2024-02-28T17:07:12;40.60;;;24.60;;
28958;SDS011;16066;0.000;0.000;2024-02-28T17:09:43;30.83;;;22.80;;
28958;SDS011;16066;0.000;0.000;2024-02-28T17:12:10;33.73;;;20.97;;
28958;SDS011;16066;0.000;0.000;2024-02-28T17:14:35;34.07;;;22.80;;
28958;SDS011;16066;0.000;0.000;2024-02-28T17:17:00;32.47;;;22.00;;
28958;SDS011;16066;0.000;0.000;2024-02-28T17:19:26;34.50;;;19.33;;
28958;SDS011;16066;0.000;0.000;2024-02-28T17:21:52;33.37;;;21.30;;
28958;SDS011;16066;0.000;0.000;2024-02-28T17:24:17;33.63;;;21.20;;
28958;SDS011;16066;0.000;0.000;2024-02-28T17:26:43;34.70;;;21.20;;
28958;SDS011;16066;0.000;0.000;2024-02-28T17:29:08;34.10;;;21.43;;
28958;SDS011;16066;0.000;0.000;2024-02-28T17:31:35;33.63;;;19.00;;
28958;SDS011;16066;0.000;0.000;2024-02-28T17:34:01;26.10;;;17.97;;
28958;SDS011;16066;0.000;0.000;2024-02-28T17:36:27;26.27;;;18.30;;
28958;SDS011;16066;0.000;0.000;2024-02-28T17:38:53;28.70;;;18.77;;
28958;SDS011;16066;0.000;0.000;2024-02-28T17:41:18;27.23;;;17.83;;
28958;SDS011;16066;0.000;0.000;2024-02-28T17:43:44;32.53;;;19.00;;
28958;SDS011;16066;0.000;0.000;2024-02-28T17:46:09;27.17;;;16.27;;
28958;SDS011;16066;0.000;0.000;2024-02-28T17:48:35;25.93;;;19.50;;
28958;SDS011;16066;0.000;0.000;2024-02-28T17:51:03;25.00;;;17.90;;
28958;SDS011;16066;0.000;0.000;2024-02-28T17:53:28;29.00;;;16.40;;
28958;SDS011;16066;0.000;0.000;2024-02-28T17:55:54;25.23;;;18.30;;
28958;SDS011;16066;0.000;0.000;2024-02-28T17:58:19;24.83;;;16.10;;
28958;SDS011;16066;0.000;0.000;2024-02-28T18:00:45;23.80;;;17.27;;
28958;SDS011;16066;0.000;0.000;2024-02-28T18:03:11;27.53;;;16.30;;
28958;SDS011;16066;0.000;0.000;2024-02-28T18:05:37;34.60;;;18.47;;
28958;SDS011;16066;0.000;0.000;2024-02-28T18:08:02;25.23;;;16.93;;
28958;SDS011;16066;0.000;0.000;2024-02-28T18:10:28;23.80;;;17.47;;
28958;SDS011;16066;0.000;0.000;2024-02-28T18:12:53;25.50;;;17.60;;
28958;SDS011;16066;0.000;0.000;2024-02-28T18:15:20;31.40;;;19.03;;
28958;SDS011;16066;0.000;0.000;2024-02-28T18:17:45;26.63;;;19.97;;
28958;SDS011;16066;0.000;0.000;2024-02-28T18:20:11;26.67;;;18.40;;
28958;SDS011;16066;0.000;0.000;2024-02-28T18:22:36;26.30;;;16.90;;
28958;SDS011;16066;0.000;0.000;2024-02-28T18:25:02;21.60;;;15.83;;
28958;SDS011;16066;0.000;0.000;2024-02-28T18:27:28;25.93;;;18.97;;
28958;SDS011;16066;0.000;0.000;2024-02-28T18:29:54;33.43;;;22.50;;
28958;SDS011;16066;0.000;0.000;2024-02-28T18:32:19;36.67;;;24.17;;
28958;SDS011;16066;0.000;0.000;2024-02-28T18:34:45;26.60;;;19.90;;
28958;SDS011;16066;0.000;0.000;2024-02-28T18:37:12;35.20;;;24.13;;
28958;SDS011;16066;0.000;0.000;2024-02-28T18:39:37;37.07;;;25.87;;
28958;SDS011;16066;0.000;0.000;2024-02-28T18:42:04;40.60;;;25.63;;
28958;SDS011;16066;0.000;0.000;2024-02-28T18:44:30;41.63;;;28.07;;
28958;SDS011;16066;0.000;0.000;2024-02-28T18:46:56;37.50;;;25.53;;
28958;SDS011;16066;0.000;0.000;2024-02-28T18:49:21;36.83;;;25.30;;
28958;SDS011;16066;0.000;0.000;2024-02-28T18:51:47;36.63;;;24.73;;
28958;SDS011;16066;0.000;0.000;2024-02-28T18:54:12;34.23;;;23.53;;
28958;SDS011;16066;0.000;0.000;2024-02-28T18:56:38;44.60;;;26.57;;
28958;SDS011;16066;0.000;0.000;2024-02-28T18:59:03;43.57;;;28.73;;
28958;SDS011;16066;0.000;0.000;2024-02-28T19:01:30;35.17;;;26.60;;
28958;SDS011;16066;0.000;0.000;2024-02-28T19:03:55;45.07;;;27.97;;
28958;SDS011;16066;0.000;0.000;2024-02-28T19:06:21;41.50;;;27.60;;
28958;SDS011;16066;0.000;0.000;2024-02-28T19:08:49;38.23;;;26.10;;
28958;SDS011;16066;0.000;0.000;2024-02-28T19:11:14;40.43;;;25.50;;
28958;SDS011;16066;0.000;0.000;2024-02-28T19:13:40;41.10;;;25.80;;
28958;SDS011;16066;0.000;0.000;2024-02-28T19:16:07;39.43;;;26.60;;
28958;SDS011;16066;0.000;0.000;2024-02-28T19:18:33;38.60;;;26.20;;
28958;SDS011;16066;0.000;0.000;2024-02-28T19:21:02;47.63;;;26.60;;
28958;SDS011;16066;0.000;0.000;2024-02-28T19:23:29;37.60;;;23.67;;
28958;SDS011;16066;0.000;0.000;2024-02-28T19:25:54;37.13;;;23.93;;
28958;SDS011;16066;0.000;0.000;2024-02-28T19:28:20;41.57;;;27.03;;
28958;SDS011;16066;0.000;0.000;2024-02-28T19:30:45;38.57;;;24.13;;
28958;SDS011;16066;0.000;0.000;2024-02-28T19:33:11;37.67;;;25.30;;
28958;SDS011;16066;0.000;0.000;2024-02-28T19:35:36;35.50;;;23.07;;
28958;SDS011;16066;0.000;0.000;2024-02-28T19:38:02;45.57;;;25.03;;
28958;SDS011;16066;0.000;0.000;2024-02-28T19:40:28;42.57;;;26.67;;
28958;SDS011;16066;0.000;0.000;2024-02-28T19:42:55;42.47;;;27.27;;
28958;SDS011;16066;0.000;0.000;2024-02-28T19:45:21;46.13;;;29.27;;
28958;SDS011;16066;0.000;0.000;2024-02-28T19:47:46;42.37;;;25.83;;
28958;SDS011;16066;0.000;0.000;2024-02-28T19:50:12;37.17;;;23.27;;
28958;SDS011;16066;0.000;0.000;2024-02-28T19:52:37;33.10;;;23.87;;
28958;SDS011;16066;0.000;0.000;2024-02-28T19:55:04;38.57;;;27.00;;
28958;SDS011;16066;0.000;0.000;2024-02-28T19:57:30;40.63;;;25.53;;
28958;SDS011;16066;0.000;0.000;2024-02-28T19:59:56;39.90;;;26.47;;
28958;SDS011;16066;0.000;0.000;2024-02-28T20:02:22;41.23;;;26.00;;
28958;SDS011;16066;0.000;0.000;2024-02-28T20:04:48;40.27;;;26.73;;
28958;SDS011;16066;0.000;0.000;2024-02-28T20:07:13;31.90;;;23.67;;
28958;SDS011;16066;0.000;0.000;2024-02-28T20:09:39;36.50;;;25.53;;
28958;SDS011;16066;0.000;0.000;2024-02-28T20:12:05;40.70;;;27.57;;
28958;SDS011;16066;0.000;0.000;2024-02-28T20:14:31;38.60;;;26.07;;
28958;SDS011;16066;0.000;0.000;2024-02-28T20:16:58;36.13;;;24.00;;
28958;SDS011;16066;0.000;0.000;2024-02-28T20:19:25;40.40;;;26.10;;
28958;SDS011;16066;0.000;0.000;2024-02-28T20:21:50;31.77;;;23.70;;
28958;SDS011;16066;0.000;0.000;2024-02-28T20:24:16;34.97;;;25.00;;
28958;SDS011;16066;0.000;0.000;2024-02-28T20:26:41;30.70;;;21.20;;
28958;SDS011;16066;0.000;0.000;2024-02-28T20:29:07;29.03;;;20.60;;
28958;SDS011;16066;0.000;0.000;2024-02-28T20:31:33;30.93;;;22.60;;
28958;SDS011;16066;0.000;0.000;2024-02-28T20:33:59;41.57;;;26.27;;
28958;SDS011;16066;0.000;0.000;2024-02-28T20:36:25;44.30;;;27.23;;
28958;SDS011;16066;0.000;0.000;2024-02-28T20:38:52;36.73;;;25.83;;
28958;SDS011;16066;0.000;0.000;2024-02-28T20:41:21;43.43;;;25.13;;
28958;SDS011;16066;0.000;0.000;2024-02-28T20:43:47;38.00;;;26.23;;
28958;SDS011;16066;0.000;0.000;2024-02-28T20:46:15;28.37;;;20.80;;
28958;SDS011;16066;0.000;0.000;2024-02-28T20:48:41;29.27;;;20.77;;
28958;SDS011;16066;0.000;0.000;2024-02-28T20:51:06;31.83;;;22.43;;
28958;SDS011;16066;0.000;0.000;2024-02-28T20:53:32;32.73;;;20.40;;
28958;SDS011;16066;0.000;0.000;2024-02-28T20:55:59;38.27;;;26.90;;
28958;SDS011;16066;0.000;0.000;2024-02-28T20:58:24;35.90;;;23.23;;
28958;SDS011;16066;0.000;0.000;2024-02-28T21:00:50;43.03;;;25.80;;
28958;SDS011;16066;0.000;0.000;2024-02-28T21:03:19;38.33;;;25.50;;
28958;SDS011;16066;0.000;0.000;2024-02-28T21:05:44;34.60;;;22.53;;
28958;SDS011;16066;0.000;0.000;2024-02-28T21:08:10;29.27;;;20.97;;